Time;durP1;ratioP1;P1;durP2;ratioP2;P2;SDS_P1;SDS_P2;PMS_P1;PMS_P2;Temp;Humidity;BMP_temperature;BMP_pressure;BME280_temperature;BME280_humidity;BME280_pressure;Samples;Min_cycle;Max_cycle;Signal;HPM_P1;HPM_P2
2023/03/06 00:02:43;;;;;;;8.85;2.25;;;3.00;99.90;;;;;;12381538;28;20144;-78
2023/03/06 00:08:45;;;;;;;6.82;2.95;;;3.00;99.90;;;;;;12356106;28;20133;-78
2023/03/06 00:14:47;;;;;;;6.63;2.70;;;3.00;99.90;;;;;;12347638;28;20034;-78
2023/03/06 00:20:49;;;;;;;4.53;2.40;;;3.00;99.90;;;;;;12397139;28;20090;-78
2023/03/06 00:26:50;;;;;;;5.93;2.67;;;3.00;99.90;;;;;;12341360;28;20042;-78
2023/03/06 00:32:54;;;;;;;5.45;2.45;;;2.90;99.90;;;;;;12351910;28;20062;-78
2023/03/06 00:38:56;;;;;;;5.55;2.50;;;2.90;99.90;;;;;;12358366;28;20069;-78
2023/03/06 00:44:57;;;;;;;8.38;2.90;;;2.80;99.90;;;;;;12381011;28;20050;-79
2023/03/06 00:51:00;;;;;;;4.68;2.50;;;2.80;99.90;;;;;;12364170;28;20039;-79
2023/03/06 00:57:01;;;;;;;7.53;2.78;;;2.70;99.90;;;;;;12375260;28;20134;-78
2023/03/06 01:03:03;;;;;;;6.25;2.63;;;2.60;99.90;;;;;;12374847;28;20133;-77
2023/03/06 01:09:05;;;;;;;7.55;3.65;;;2.70;99.90;;;;;;12339343;28;20112;-78
2023/03/06 01:15:08;;;;;;;6.47;3.00;;;2.70;99.90;;;;;;12382550;28;20686;-78
2023/03/06 01:21:10;;;;;;;4.47;2.83;;;2.60;99.90;;;;;;12392403;28;20065;-78
2023/03/06 01:27:12;;;;;;;7.85;3.17;;;2.60;99.90;;;;;;12379824;28;20137;-78
2023/03/06 01:33:17;;;;;;;7.57;3.13;;;2.70;99.90;;;;;;12388817;28;20053;-79
2023/03/06 01:39:18;;;;;;;7.80;3.30;;;2.60;99.90;;;;;;12390469;28;20424;-78
2023/03/06 01:45:23;;;;;;;9.20;4.05;;;2.60;99.90;;;;;;12364115;28;20062;-79
2023/03/06 01:51:30;;;;;;;6.75;3.50;;;2.50;99.90;;;;;;12356831;28;20076;-78
2023/03/06 01:57:41;;;;;;;8.80;3.95;;;2.50;99.90;;;;;;12375518;28;20062;-78
2023/03/06 02:03:44;;;;;;;6.40;4.07;;;2.50;99.90;;;;;;12365420;28;20065;-78
2023/03/06 02:09:46;;;;;;;6.85;4.10;;;2.40;99.90;;;;;;12373545;28;20049;-78
2023/03/06 02:15:48;;;;;;;7.82;4.60;;;2.40;99.90;;;;;;12362019;28;20047;-79
2023/03/06 02:21:50;;;;;;;11.60;4.90;;;2.30;99.90;;;;;;12385057;28;20054;-78
2023/03/06 02:27:52;;;;;;;11.07;5.57;;;2.30;99.90;;;;;;12394837;28;20057;-78
2023/03/06 02:34:13;;;;;;;9.27;4.93;;;2.30;99.90;;;;;;12361294;28;20521;-78
2023/03/06 02:40:16;;;;;;;11.38;5.32;;;2.30;99.90;;;;;;12381864;28;20129;-78
2023/03/06 02:46:18;;;;;;;10.88;5.40;;;2.30;99.90;;;;;;12367676;28;20075;-79
2023/03/06 02:52:20;;;;;;;12.35;5.72;;;2.20;99.90;;;;;;12377682;28;20494;-78
2023/03/06 02:58:21;;;;;;;9.13;5.18;;;2.20;99.90;;;;;;12369549;28;20470;-78
2023/03/06 03:04:23;;;;;;;11.00;5.97;;;2.20;99.90;;;;;;12381807;28;20078;-78
2023/03/06 03:10:26;;;;;;;10.15;6.15;;;2.20;99.90;;;;;;12371717;28;20089;-78
2023/03/06 03:16:28;;;;;;;14.63;7.10;;;2.20;99.90;;;;;;12373347;28;20392;-79
2023/03/06 03:22:30;;;;;;;11.32;6.68;;;2.20;99.90;;;;;;12353028;28;20162;-78
2023/03/06 03:28:32;;;;;;;12.60;7.80;;;2.20;99.90;;;;;;12356891;28;20491;-78
2023/03/06 03:34:34;;;;;;;12.55;7.88;;;2.20;99.90;;;;;;12346431;28;20038;-80
2023/03/06 03:40:37;;;;;;;15.50;7.82;;;2.10;99.90;;;;;;12360687;28;20057;-79
2023/03/06 03:46:39;;;;;;;9.67;5.97;;;2.00;99.90;;;;;;12359659;28;20046;-79
2023/03/06 03:52:41;;;;;;;16.77;7.95;;;2.00;99.90;;;;;;12389073;28;20042;-79
2023/03/06 03:58:43;;;;;;;15.40;8.07;;;1.90;99.90;;;;;;12365116;28;20073;-79
2023/03/06 04:04:45;;;;;;;14.05;8.50;;;1.80;99.90;;;;;;12367511;28;20066;-79
2023/03/06 04:10:47;;;;;;;14.70;8.85;;;1.70;99.90;;;;;;12362377;28;20054;-79
2023/03/06 04:16:49;;;;;;;14.65;9.02;;;1.70;99.90;;;;;;12375072;28;20140;-79
2023/03/06 04:22:51;;;;;;;18.67;9.13;;;1.60;99.90;;;;;;12334800;28;20113;-80
2023/03/06 04:28:55;;;;;;;17.77;10.00;;;1.60;99.90;;;;;;12368129;28;20110;-79
2023/03/06 04:34:56;;;;;;;18.77;10.48;;;1.60;99.90;;;;;;12370602;28;20113;-79
2023/03/06 04:40:58;;;;;;;18.92;9.90;;;1.50;99.90;;;;;;12350816;28;20129;-79
2023/03/06 04:47:01;;;;;;;16.83;9.88;;;1.60;99.90;;;;;;12361590;28;20751;-79
2023/03/06 04:53:03;;;;;;;17.15;10.65;;;1.50;99.90;;;;;;12395131;28;20189;-79
2023/03/06 04:59:05;;;;;;;20.50;10.77;;;1.40;99.90;;;;;;12350272;28;20054;-79
2023/03/06 05:05:07;;;;;;;17.73;9.75;;;1.40;99.90;;;;;;12370051;28;20053;-79
2023/03/06 05:11:09;;;;;;;17.30;10.20;;;1.60;99.90;;;;;;12343135;28;20073;-79
2023/03/06 05:17:11;;;;;;;17.88;9.70;;;1.60;99.90;;;;;;12368659;28;20054;-79
2023/03/06 05:23:13;;;;;;;17.00;9.82;;;1.60;99.90;;;;;;12353145;28;20047;-79
2023/03/06 05:29:15;;;;;;;18.35;9.50;;;1.50;99.90;;;;;;12369417;28;20051;-79
2023/03/06 05:35:22;;;;;;;21.95;9.65;;;1.50;99.90;;;;;;12378742;28;20133;-79
2023/03/06 05:41:24;;;;;;;19.92;9.52;;;1.60;99.90;;;;;;12393688;28;20069;-79
2023/03/06 05:47:26;;;;;;;17.55;9.15;;;1.60;99.90;;;;;;12371359;28;20065;-79
2023/03/06 05:53:28;;;;;;;16.55;9.05;;;1.60;99.90;;;;;;12418537;28;20046;-80
2023/03/06 05:59:31;;;;;;;16.88;9.70;;;1.50;99.90;;;;;;12410889;28;20366;-79
2023/03/06 06:05:38;;;;;;;17.17;10.23;;;1.60;99.90;;;;;;12414535;28;20093;-79
2023/03/06 06:11:40;;;;;;;20.15;10.73;;;1.60;99.90;;;;;;12356405;28;20427;-79
2023/03/06 06:17:42;;;;;;;20.83;9.85;;;1.60;99.90;;;;;;12360094;28;20053;-79
2023/03/06 06:23:44;;;;;;;20.45;10.48;;;1.70;99.90;;;;;;12345739;28;20133;-79
2023/03/06 06:29:49;;;;;;;17.88;10.13;;;1.70;99.90;;;;;;12372147;28;20042;-79
2023/03/06 06:35:51;;;;;;;18.25;9.68;;;1.70;99.90;;;;;;12366943;28;20474;-80
2023/03/06 06:41:53;;;;;;;18.15;9.93;;;1.70;99.90;;;;;;12372005;28;20071;-79
2023/03/06 06:48:16;;;;;;;16.23;9.88;;;1.80;99.90;;;;;;12365173;28;20046;-79
2023/03/06 06:54:21;;;;;;;19.95;10.95;;;1.80;99.90;;;;;;12369550;28;20050;-79
2023/03/06 07:00:23;;;;;;;20.27;11.40;;;1.90;99.90;;;;;;12382349;28;20137;-78
2023/03/06 07:06:25;;;;;;;18.17;10.65;;;2.00;99.90;;;;;;12351356;28;20068;-79
2023/03/06 07:12:31;;;;;;;14.43;10.43;;;2.20;99.90;;;;;;12331181;28;20047;-78
2023/03/06 07:18:32;;;;;;;18.58;11.07;;;2.20;99.90;;;;;;12365612;28;20087;-79
2023/03/06 07:24:34;;;;;;;15.82;10.32;;;2.10;99.90;;;;;;12362614;28;20069;-80
2023/03/06 07:30:39;;;;;;;19.45;9.98;;;2.20;99.90;;;;;;12365923;28;20244;-79
2023/03/06 07:36:41;;;;;;;20.98;11.55;;;2.20;99.90;;;;;;12360596;28;20506;-79
2023/03/06 07:42:43;;;;;;;21.02;11.00;;;2.20;99.90;;;;;;12338668;28;20050;-78
2023/03/06 07:48:45;;;;;;;22.05;11.68;;;2.30;99.90;;;;;;12350744;28;20059;-79
2023/03/06 07:54:47;;;;;;;18.27;10.93;;;2.20;99.90;;;;;;12385699;28;20042;-78
2023/03/06 08:00:49;;;;;;;17.42;10.65;;;2.20;99.90;;;;;;12360313;28;20058;-79
2023/03/06 08:06:56;;;;;;;16.67;9.98;;;2.20;99.90;;;;;;12383565;28;20069;-80
2023/03/06 08:12:58;;;;;;;17.73;11.88;;;2.20;99.90;;;;;;12357347;28;20046;-79
2023/03/06 08:19:00;;;;;;;16.98;11.40;;;2.30;99.90;;;;;;12372114;28;20070;-79
2023/03/06 08:25:04;;;;;;;16.48;10.50;;;2.30;99.90;;;;;;12360466;28;20054;-79
2023/03/06 08:31:16;;;;;;;14.67;9.67;;;2.30;99.90;;;;;;12383408;28;20137;-81
2023/03/06 08:37:18;;;;;;;18.17;10.98;;;2.20;99.90;;;;;;12371446;28;20042;-80
2023/03/06 08:43:20;;;;;;;17.15;10.60;;;2.00;99.90;;;;;;12364014;28;20050;-81
2023/03/06 08:49:22;;;;;;;18.80;10.95;;;2.00;99.90;;;;;;12341441;28;20065;-81
2023/03/06 08:55:26;;;;;;;17.10;11.82;;;1.90;99.90;;;;;;12358330;28;20092;-81
2023/03/06 09:01:32;;;;;;;18.07;10.87;;;1.90;99.90;;;;;;12322828;28;20050;-80
2023/03/06 09:07:35;;;;;;;17.00;10.88;;;2.00;99.90;;;;;;12365291;28;20666;-80
2023/03/06 09:13:37;;;;;;;17.30;10.23;;;2.10;99.90;;;;;;12377858;28;20074;-81
2023/03/06 09:19:39;;;;;;;15.73;10.15;;;2.20;99.90;;;;;;12390223;28;20141;-80
2023/03/06 09:25:41;;;;;;;16.25;10.10;;;2.10;99.90;;;;;;12392045;28;20388;-81
2023/03/06 09:31:44;;;;;;;16.02;10.40;;;2.10;99.90;;;;;;12396295;28;20410;-80
2023/03/06 09:37:45;;;;;;;15.10;10.60;;;2.10;99.90;;;;;;12354178;28;20092;-81
2023/03/06 09:43:51;;;;;;;16.80;10.48;;;2.10;99.90;;;;;;12384311;28;20038;-81
2023/03/06 09:50:19;;;;;;;16.63;11.23;;;2.20;99.90;;;;;;12369203;28;20481;-81
2023/03/06 09:56:29;;;;;;;15.35;10.57;;;2.00;99.90;;;;;;12367164;28;20046;-81
2023/03/06 10:02:38;;;;;;;19.95;11.43;;;1.80;99.90;;;;;;12358992;28;20058;-81
2023/03/06 10:08:59;;;;;;;18.98;10.95;;;1.90;99.90;;;;;;12373022;28;20399;-81
2023/03/06 10:15:24;;;;;;;16.45;10.43;;;1.90;99.90;;;;;;12358759;28;20133;-81
2023/03/06 10:21:32;;;;;;;;;;;1.90;99.90;;;;;;12368781;28;20123;-82
2023/03/06 10:27:49;;;;;;;17.55;9.60;;;1.90;99.90;;;;;;12368429;28;19989;-81
2023/03/06 10:33:55;;;;;;;14.43;9.05;;;2.00;99.90;;;;;;12369862;28;20403;-82
2023/03/06 10:40:05;;;;;;;9.77;7.28;;;2.00;99.90;;;;;;12363460;28;20054;-81
2023/03/06 10:46:11;;;;;;;13.27;8.48;;;2.10;99.90;;;;;;12372685;28;20058;-81
2023/03/06 10:52:13;;;;;;;11.55;8.43;;;2.20;99.90;;;;;;12347558;28;20049;-82
2023/03/06 10:58:18;;;;;;;15.18;9.85;;;2.20;99.90;;;;;;12356487;28;20121;-82
2023/03/06 11:04:23;;;;;;;13.05;8.98;;;2.60;99.90;;;;;;12364783;28;20138;-81
2023/03/06 11:10:25;;;;;;;13.35;9.25;;;2.60;99.90;;;;;;12385537;28;20054;-82
2023/03/06 11:16:29;;;;;;;14.50;9.85;;;2.50;99.90;;;;;;12349433;28;20514;-81
2023/03/06 11:22:32;;;;;;;11.93;7.47;;;2.50;99.90;;;;;;12386904;28;20061;-81
2023/03/06 11:28:48;;;;;;;12.00;7.25;;;2.50;99.90;;;;;;12370854;28;20043;-81
2023/03/06 11:34:53;;;;;;;12.15;7.45;;;2.60;99.90;;;;;;12380790;28;20034;-81
2023/03/06 11:41:02;;;;;;;9.80;6.65;;;2.60;99.90;;;;;;12336872;28;20053;-81
2023/03/06 11:47:03;;;;;;;9.32;6.63;;;2.90;99.90;;;;;;12368370;28;20079;-82
2023/03/06 11:53:10;;;;;;;11.43;7.03;;;3.00;99.90;;;;;;12375465;28;20070;-81
2023/03/06 11:59:52;;;;;;;9.98;6.43;;;3.10;99.90;;;;;;12364513;28;20073;-81
2023/03/06 12:06:09;;;;;;;8.98;5.70;;;3.50;99.90;;;;;;12368834;28;20082;-81
2023/03/06 12:12:38;;;;;;;5.75;4.10;;;3.90;99.90;;;;;;12352484;28;20082;-81
2023/03/06 12:19:06;;;;;;;6.70;4.55;;;4.20;99.90;;;;;;12370671;28;20078;-81
2023/03/06 12:25:33;;;;;;;6.85;4.47;;;4.40;99.90;;;;;;12379391;28;20073;-81
2023/03/06 12:31:54;;;;;;;5.13;3.75;;;4.30;99.90;;;;;;12344659;28;20042;-81
2023/03/06 12:38:25;;;;;;;4.25;2.55;;;4.50;99.90;;;;;;12365652;28;20471;-81
2023/03/06 12:44:48;;;;;;;4.60;2.28;;;4.30;99.90;;;;;;12357756;28;20178;-81
2023/03/06 12:50:51;;;;;;;3.40;1.65;;;4.60;99.90;;;;;;12360006;28;20042;-81
2023/03/06 12:56:55;;;;;;;3.53;1.75;;;4.70;99.90;;;;;;12368534;28;20121;-80
2023/03/06 13:03:09;;;;;;;3.33;1.90;;;4.60;99.90;;;;;;12362574;28;20067;-81
2023/03/06 13:09:22;;;;;;;3.30;1.58;;;4.50;99.90;;;;;;12348344;28;20473;-81
2023/03/06 13:15:36;;;;;;;4.00;1.70;;;4.40;99.90;;;;;;12376553;28;20580;-81
2023/03/06 13:21:54;;;;;;;3.45;1.63;;;4.40;99.90;;;;;;12367857;28;20396;-80
2023/03/06 13:27:55;;;;;;;3.13;1.83;;;4.50;99.90;;;;;;12357283;28;20054;-80
2023/03/06 13:34:00;;;;;;;4.57;2.78;;;4.40;99.90;;;;;;12378207;28;20066;-80
2023/03/06 13:40:08;;;;;;;3.10;1.52;;;4.40;99.90;;;;;;12354150;28;20051;-80
2023/03/06 13:46:33;;;;;;;2.83;1.35;;;4.80;99.90;;;;;;12362042;28;20101;-80
2023/03/06 13:52:44;;;;;;;3.28;1.55;;;5.20;99.90;;;;;;12358272;28;20570;-80
2023/03/06 13:59:21;;;;;;;2.90;1.40;;;5.30;99.90;;;;;;12353835;28;20534;-80
2023/03/06 14:05:31;;;;;;;2.90;1.40;;;5.20;99.90;;;;;;12375006;28;20057;-80
2023/03/06 14:11:38;;;;;;;2.42;1.38;;;5.20;99.90;;;;;;12373804;28;20050;-80
2023/03/06 14:18:00;;;;;;;4.07;1.63;;;4.90;99.90;;;;;;12372999;28;20427;-79
2023/03/06 14:24:03;;;;;;;2.65;1.42;;;4.90;99.90;;;;;;12350766;28;20180;-79
2023/03/06 14:30:14;;;;;;;4.95;1.42;;;5.00;99.90;;;;;;12365670;28;20398;-80
2023/03/06 14:36:19;;;;;;;2.53;1.42;;;4.90;99.90;;;;;;12333756;28;20524;-80
2023/03/06 14:42:26;;;;;;;4.65;1.33;;;5.00;99.90;;;;;;12343758;28;20479;-80
2023/03/06 14:48:44;;;;;;;3.78;1.25;;;5.00;99.90;;;;;;12346513;28;20054;-80
2023/03/06 14:54:46;;;;;;;2.45;1.20;;;5.10;99.90;;;;;;12353917;28;20450;-79
2023/03/06 15:01:00;;;;;;;3.50;1.70;;;5.10;99.90;;;;;;12369626;28;20055;-80
2023/03/06 15:07:08;;;;;;;3.08;1.60;;;5.00;99.90;;;;;;12385309;28;20079;-81
2023/03/06 15:13:22;;;;;;;4.43;1.80;;;4.80;99.90;;;;;;12352997;28;20066;-80
2023/03/06 15:19:24;;;;;;;3.42;1.83;;;4.80;99.90;;;;;;12384248;28;20057;-80
2023/03/06 15:25:31;;;;;;;4.03;1.65;;;4.70;99.90;;;;;;12386935;28;20530;-80
2023/03/06 15:31:35;;;;;;;3.30;1.88;;;4.60;99.90;;;;;;12366276;28;20082;-80
2023/03/06 15:37:37;;;;;;;4.03;1.77;;;4.90;99.90;;;;;;12356256;28;20380;-80
2023/03/06 15:43:39;;;;;;;4.57;1.77;;;4.90;99.90;;;;;;12375347;28;20060;-81
2023/03/06 15:49:41;;;;;;;3.35;2.00;;;4.90;99.90;;;;;;12374041;28;20047;-80
2023/03/06 15:55:43;;;;;;;2.72;1.58;;;4.80;99.90;;;;;;12368582;28;20121;-79
2023/03/06 16:01:46;;;;;;;3.28;1.90;;;4.70;99.90;;;;;;12375093;28;20081;-80
2023/03/06 16:07:48;;;;;;;4.05;2.10;;;4.80;99.90;;;;;;12370140;28;20053;-80
2023/03/06 16:13:51;;;;;;;4.00;2.08;;;4.70;99.90;;;;;;12383765;28;20070;-80
2023/03/06 16:19:53;;;;;;;3.65;1.80;;;4.60;99.90;;;;;;12388291;28;20061;-80
2023/03/06 16:25:56;;;;;;;5.50;2.00;;;4.40;99.90;;;;;;12359225;28;20054;-80
2023/03/06 16:32:00;;;;;;;3.75;1.83;;;4.30;99.90;;;;;;12378149;28;20043;-80
2023/03/06 16:38:02;;;;;;;6.57;3.35;;;4.10;99.90;;;;;;12377317;28;20051;-80
2023/03/06 16:44:06;;;;;;;2.92;1.55;;;4.00;99.90;;;;;;12347999;28;20047;-81
2023/03/06 16:50:28;;;;;;;3.08;1.48;;;3.80;99.90;;;;;;12373674;28;20117;-80
2023/03/06 16:56:30;;;;;;;4.30;1.48;;;3.60;99.90;;;;;;12372649;28;20185;-79
2023/03/06 17:02:33;;;;;;;3.10;1.65;;;3.50;99.90;;;;;;12361013;28;20054;-80
2023/03/06 17:08:36;;;;;;;3.80;1.57;;;3.30;99.90;;;;;;12361736;28;20050;-79
2023/03/06 17:14:38;;;;;;;3.83;1.70;;;3.20;99.90;;;;;;12322058;28;20050;-80
2023/03/06 17:20:48;;;;;;;3.15;1.60;;;3.10;99.90;;;;;;12379414;28;20441;-79
2023/03/06 17:26:50;;;;;;;3.17;1.85;;;3.10;99.90;;;;;;12356414;28;20632;-79
2023/03/06 17:32:52;;;;;;;4.75;2.08;;;3.00;99.90;;;;;;12382031;28;20387;-79
2023/03/06 17:38:59;;;;;;;4.00;2.30;;;3.00;99.90;;;;;;12346466;28;20077;-79
2023/03/06 17:45:01;;;;;;;4.18;2.45;;;2.90;99.90;;;;;;12363000;28;20053;-79
2023/03/06 17:51:03;;;;;;;4.40;2.53;;;2.80;99.90;;;;;;12373296;28;20126;-78
2023/03/06 17:57:05;;;;;;;4.70;2.40;;;2.80;99.90;;;;;;12367073;28;20122;-79
2023/03/06 18:03:08;;;;;;;5.25;2.72;;;2.80;99.90;;;;;;12330381;28;20046;-78
2023/03/06 18:09:10;;;;;;;5.40;3.05;;;2.70;99.90;;;;;;12355110;28;20082;-78
2023/03/06 18:15:12;;;;;;;3.22;2.47;;;2.60;99.90;;;;;;12372748;28;20078;-78
2023/03/06 18:21:15;;;;;;;4.68;2.75;;;2.50;99.90;;;;;;12394160;28;20529;-79
2023/03/06 18:27:18;;;;;;;5.15;2.67;;;2.50;99.90;;;;;;12429090;28;20057;-78
2023/03/06 18:33:20;;;;;;;5.32;2.97;;;2.50;99.90;;;;;;12405261;28;20085;-79
2023/03/06 18:39:22;;;;;;;5.47;3.33;;;2.40;99.90;;;;;;12358169;28;20142;-79
2023/03/06 18:45:23;;;;;;;7.57;3.70;;;2.40;99.90;;;;;;12367766;28;20058;-79
2023/03/06 18:51:26;;;;;;;6.40;4.13;;;2.30;99.90;;;;;;12379157;28;20138;-78
2023/03/06 18:57:28;;;;;;;8.18;4.75;;;2.30;99.90;;;;;;12360735;28;20180;-79
2023/03/06 19:03:31;;;;;;;9.43;5.18;;;2.20;99.90;;;;;;12387503;28;20046;-79
2023/03/06 19:09:33;;;;;;;9.20;5.47;;;2.20;99.90;;;;;;12367310;28;20061;-79
2023/03/06 19:15:45;;;;;;;11.45;5.75;;;2.20;99.90;;;;;;12361451;28;20517;-79
2023/03/06 19:21:52;;;;;;;12.52;6.32;;;2.20;99.90;;;;;;12362706;28;20046;-79
2023/03/06 19:27:54;;;;;;;11.00;6.28;;;2.20;99.90;;;;;;12362860;28;20069;-79
2023/03/06 19:33:56;;;;;;;10.15;6.50;;;2.20;99.90;;;;;;12386886;28;20039;-79
2023/03/06 19:40:00;;;;;;;12.38;6.95;;;2.20;99.90;;;;;;12355027;28;20058;-79
2023/03/06 19:46:02;;;;;;;12.00;6.63;;;2.20;99.90;;;;;;12331529;28;20559;-79
2023/03/06 19:52:07;;;;;;;12.27;7.35;;;2.30;99.90;;;;;;12368955;28;20050;-79
2023/03/06 19:58:10;;;;;;;;;;;2.30;99.90;;;;;;12357465;28;20132;-79
2023/03/06 20:04:12;;;;;;;18.55;10.38;;;2.40;99.90;;;;;;12348500;28;20044;-79
2023/03/06 20:10:14;;;;;;;18.23;11.13;;;2.40;99.90;;;;;;12352900;28;20046;-79
2023/03/06 20:16:17;;;;;;;23.38;12.32;;;2.40;99.90;;;;;;12345665;28;20051;-79
2023/03/06 20:22:19;;;;;;;24.70;14.75;;;2.40;99.90;;;;;;12372096;28;20042;-78
2023/03/06 20:28:22;;;;;;;25.13;15.02;;;2.40;99.90;;;;;;12365438;28;20046;-79
2023/03/06 20:34:24;;;;;;;29.27;16.10;;;2.40;99.90;;;;;;12370557;28;20074;-79
2023/03/06 20:40:26;;;;;;;30.27;16.60;;;2.50;99.90;;;;;;12351785;28;20066;-79
2023/03/06 20:46:29;;;;;;;33.80;17.95;;;2.50;99.90;;;;;;12366770;28;20065;-79
2023/03/06 20:52:31;;;;;;;33.40;17.23;;;2.50;99.90;;;;;;12372276;28;20122;-79
2023/03/06 20:58:33;;;;;;;35.88;18.35;;;2.50;99.90;;;;;;12376591;28;20054;-79
2023/03/06 21:04:37;;;;;;;29.73;17.98;;;2.50;99.90;;;;;;12373638;28;20518;-80
2023/03/06 21:10:39;;;;;;;33.20;18.67;;;2.50;99.90;;;;;;12374572;28;20050;-79
2023/03/06 21:16:41;;;;;;;34.83;18.60;;;2.50;99.90;;;;;;12351039;28;20039;-79
2023/03/06 21:22:43;;;;;;;31.58;17.85;;;2.50;99.90;;;;;;12402237;28;20061;-79
2023/03/06 21:28:46;;;;;;;33.55;19.02;;;2.40;99.90;;;;;;12384812;28;20046;-79
2023/03/06 21:34:47;;;;;;;34.20;18.08;;;2.40;99.90;;;;;;12374035;28;20053;-79
2023/03/06 21:40:49;;;;;;;39.17;19.15;;;2.40;99.90;;;;;;12345766;28;20061;-79
2023/03/06 21:46:51;;;;;;;42.08;19.67;;;2.40;99.90;;;;;;12378345;28;20666;-80
2023/03/06 21:52:55;;;;;;;40.03;20.67;;;2.40;99.90;;;;;;12371908;28;20055;-79
2023/03/06 21:58:57;;;;;;;40.43;21.20;;;2.40;99.90;;;;;;12383855;28;20038;-79
2023/03/06 22:04:59;;;;;;;41.80;21.20;;;2.40;99.90;;;;;;12369569;28;20043;-80
2023/03/06 22:11:06;;;;;;;49.38;21.92;;;2.40;99.90;;;;;;12348986;28;20046;-79
2023/03/06 22:17:08;;;;;;;46.53;21.70;;;2.30;99.90;;;;;;12347145;28;20467;-79
2023/03/06 22:23:10;;;;;;;39.25;20.63;;;2.30;99.90;;;;;;12378933;28;20184;-79
2023/03/06 22:29:12;;;;;;;40.53;20.33;;;2.30;99.90;;;;;;12372054;28;20505;-79
2023/03/06 22:35:14;;;;;;;36.92;18.90;;;2.30;99.90;;;;;;12359728;28;20057;-80
2023/03/06 22:41:18;;;;;;;37.65;18.92;;;2.40;99.90;;;;;;12369935;28;20129;-80
2023/03/06 22:47:20;;;;;;;33.08;17.60;;;2.40;99.90;;;;;;12372507;28;20597;-80
2023/03/06 22:53:22;;;;;;;31.23;16.65;;;2.50;99.90;;;;;;12349724;28;20042;-79
2023/03/06 22:59:24;;;;;;;34.78;17.10;;;2.50;99.90;;;;;;12367469;28;20050;-80
2023/03/06 23:05:26;;;;;;;28.30;15.00;;;2.40;99.90;;;;;;12361489;28;20039;-79
2023/03/06 23:11:30;;;;;;;30.15;14.63;;;2.50;99.90;;;;;;12369613;28;20479;-79
2023/03/06 23:17:32;;;;;;;30.08;15.32;;;2.50;99.90;;;;;;12374545;28;20053;-80
2023/03/06 23:23:36;;;;;;;27.35;13.80;;;2.40;99.90;;;;;;12379277;28;20136;-81
2023/03/06 23:29:38;;;;;;;27.67;14.00;;;2.30;99.90;;;;;;12362768;28;20201;-80
2023/03/06 23:35:40;;;;;;;28.38;14.07;;;2.40;99.90;;;;;;12380705;28;20054;-80
2023/03/06 23:41:42;;;;;;;29.85;14.38;;;2.30;99.90;;;;;;12345410;28;20144;-80
2023/03/06 23:47:43;;;;;;;30.85;13.80;;;2.30;99.90;;;;;;12368532;28;20060;-80
2023/03/06 23:53:46;;;;;;;28.25;14.80;;;2.20;99.90;;;;;;12372175;28;20410;-80
2023/03/06 23:59:48;;;;;;;31.05;14.65;;;2.20;99.90;;;;;;12364211;28;20078;-80
